Tallahassee, FL

12:23 AM EST on January 19, 2018 (GMT -0500)
Hartsfield Elementary School WeatherSTEM | | Change Station
Active Advisory: Hard Freeze Warning

Elev 203 ft 30.43 °N, 84.26 °W | Updated 35 seconds ago

Partly Cloudy
Partly Cloudy
33.0 °F
Feels Like 33 °F
N
0.0
Wind Variable Wind from NNE

Today
High -- | Low -- °F
--% Chance of Precip.
Yesterday
High -- | Low -- °F
Precip. -- in
Pressure 30.38 in
Visibility 0.5 miles
Clouds
Windchill 33 °F
Dew Point 23 °F
Humidity 68%
Rainfall 0.00 in
Snow Depth Not available.
7:33 AM 6:02 PM
Waxing Crescent, 4% visible
SPECI KTLH 190509Z AUTO 29003KT 1/2SM HZ VV002 M04/M07 A3038 RMK AO2 T10391067
Pressure 30.38 in
Visibility 0.5 miles
Clouds
Windchill 33 °F
Dew Point 23 °F
Humidity 68%
Rainfall 0.00 in
Snow Depth Not available.
7:33 AM 6:02 PM
Waxing Crescent, 4% visible
SPECI KTLH 190509Z AUTO 29003KT 1/2SM HZ VV002 M04/M07 A3038 RMK AO2 T10391067

Get Your Daily Forecast Email!

Thanks for signing up!

Be on the lookout for a verification email in your inbox.

You'll start receiving severe weather alerts in your inbox..

×

10-Day Weather Forecast

Almanac

Astronomy

Jan. 19, 2018 Rise Set
Actual Time
Civil Twilight
Nautical Twilight
Astronomical Twilight
Moon
Length of Visible Light
Length of Day
Tomorrow will be .
, % of the Moon is Illuminated

Today's Extremes

State Highs State Lows

Community

WunderPhotos

Category 6

Welcome to Category 6. This is the collective home for Weather Underground's featured writeups by Dr. Jeff Masters (right), Bob Henson (left), Chris Burt, and other regular contributors.

Nearby

Air Quality

  Air Quality AQ Index Pollutant
Not available.

Snow Depth

Station Depth Elevation

Earthquake Activity

City Distance Mag. Time & Date
Minimum magnitude displayed is 2.5.

Coastal Water Temperatures

Place Temperature

Stations

Nearby Weather Stations

Station Location Temp. Windchill Dew Point Humidity Wind Precip. Elev Updated Type
                   

Watches & Warnings

Hard Freeze Warning
Issued: 1:54 PM CST Jan. 18, 2018 – National Weather Service

... Hard freeze warning in effect from 1 am EST /midnight CST/ to
9 am EST /8 am CST/ Friday...

The National Weather Service in Tallahassee has issued a hard
freeze warning, which is in effect from 1 am EST /midnight CST/
to 9 am EST /8 am CST/ Friday.

* Temperature... around 20 degrees, especially in low-lying and
sheltered locations.

* Impacts... a prolonged period of sub-freezing temperatures will
be a danger for pets, livestock and sensitive vegetation.
Exposed water pipes will be at risk of freezing and possibly
bursting.

Precautionary/preparedness actions...

A hard freeze warning means sub-freezing temperatures are
imminent or highly likely. These conditions will kill crops and
other sensitive vegetation.



Camp